sensor_id;sensor_type;location;lat;lon;timestamp;P1;durP1;ratioP1;P2;durP2;ratioP2
29908;SDS011;36247;51.952;6.146;2023-04-28T00:01:27;14.75;;;9.02;;
29908;SDS011;36247;51.952;6.146;2023-04-28T00:03:53;12.85;;;9.05;;
29908;SDS011;36247;51.952;6.146;2023-04-28T00:06:19;16.23;;;8.68;;
29908;SDS011;36247;51.952;6.146;2023-04-28T00:08:45;13.98;;;9.75;;
29908;SDS011;36247;51.952;6.146;2023-04-28T00:11:10;12.07;;;7.75;;
29908;SDS011;36247;51.952;6.146;2023-04-28T00:13:37;12.85;;;7.97;;
29908;SDS011;36247;51.952;6.146;2023-04-28T00:16:03;11.18;;;8.00;;
29908;SDS011;36247;51.952;6.146;2023-04-28T00:18:28;10.80;;;7.38;;
29908;SDS011;36247;51.952;6.146;2023-04-28T00:20:54;11.02;;;8.38;;
29908;SDS011;36247;51.952;6.146;2023-04-28T00:23:20;13.23;;;8.25;;
29908;SDS011;36247;51.952;6.146;2023-04-28T00:25:52;12.20;;;8.20;;
29908;SDS011;36247;51.952;6.146;2023-04-28T00:28:18;19.83;;;8.40;;
29908;SDS011;36247;51.952;6.146;2023-04-28T00:30:44;13.57;;;7.70;;
29908;SDS011;36247;51.952;6.146;2023-04-28T00:33:10;14.02;;;8.80;;
29908;SDS011;36247;51.952;6.146;2023-04-28T00:35:36;14.77;;;8.52;;
29908;SDS011;36247;51.952;6.146;2023-04-28T00:38:02;13.00;;;7.90;;
29908;SDS011;36247;51.952;6.146;2023-04-28T00:43:04;12.45;;;7.60;;
29908;SDS011;36247;51.952;6.146;2023-04-28T00:45:30;11.32;;;6.90;;
29908;SDS011;36247;51.952;6.146;2023-04-28T00:47:56;13.75;;;7.88;;
29908;SDS011;36247;51.952;6.146;2023-04-28T00:50:23;10.07;;;7.50;;
29908;SDS011;36247;51.952;6.146;2023-04-28T00:52:50;11.88;;;7.78;;
29908;SDS011;36247;51.952;6.146;2023-04-28T00:55:17;14.13;;;7.72;;
29908;SDS011;36247;51.952;6.146;2023-04-28T00:57:43;10.15;;;7.30;;
29908;SDS011;36247;51.952;6.146;2023-04-28T01:00:11;11.00;;;7.78;;
29908;SDS011;36247;51.952;6.146;2023-04-28T01:02:39;14.00;;;7.40;;
29908;SDS011;36247;51.952;6.146;2023-04-28T01:05:05;12.50;;;7.85;;
29908;SDS011;36247;51.952;6.146;2023-04-28T01:07:35;13.25;;;7.90;;
29908;SDS011;36247;51.952;6.146;2023-04-28T01:10:05;13.48;;;7.55;;
29908;SDS011;36247;51.952;6.146;2023-04-28T01:12:33;12.40;;;7.13;;
29908;SDS011;36247;51.952;6.146;2023-04-28T01:14:59;10.05;;;7.38;;
29908;SDS011;36247;51.952;6.146;2023-04-28T01:17:26;11.38;;;8.20;;
29908;SDS011;36247;51.952;6.146;2023-04-28T01:19:52;12.82;;;7.70;;
29908;SDS011;36247;51.952;6.146;2023-04-28T01:22:18;11.45;;;7.40;;
29908;SDS011;36247;51.952;6.146;2023-04-28T01:24:44;12.52;;;7.45;;
29908;SDS011;36247;51.952;6.146;2023-04-28T01:27:12;8.90;;;6.75;;
29908;SDS011;36247;51.952;6.146;2023-04-28T01:29:39;14.50;;;7.30;;
29908;SDS011;36247;51.952;6.146;2023-04-28T01:32:05;10.07;;;6.90;;
29908;SDS011;36247;51.952;6.146;2023-04-28T01:34:33;10.68;;;6.45;;
29908;SDS011;36247;51.952;6.146;2023-04-28T01:36:59;10.70;;;6.15;;
29908;SDS011;36247;51.952;6.146;2023-04-28T01:39:24;10.35;;;6.47;;
29908;SDS011;36247;51.952;6.146;2023-04-28T01:41:50;11.93;;;7.43;;
29908;SDS011;36247;51.952;6.146;2023-04-28T01:44:15;10.07;;;6.68;;
29908;SDS011;36247;51.952;6.146;2023-04-28T01:46:42;10.00;;;7.38;;
29908;SDS011;36247;51.952;6.146;2023-04-28T01:49:08;13.13;;;8.15;;
29908;SDS011;36247;51.952;6.146;2023-04-28T01:51:33;10.18;;;7.78;;
29908;SDS011;36247;51.952;6.146;2023-04-28T01:54:00;11.82;;;8.55;;
29908;SDS011;36247;51.952;6.146;2023-04-28T01:56:25;11.90;;;8.75;;
29908;SDS011;36247;51.952;6.146;2023-04-28T01:58:53;13.68;;;8.57;;
29908;SDS011;36247;51.952;6.146;2023-04-28T02:01:19;15.65;;;8.55;;
29908;SDS011;36247;51.952;6.146;2023-04-28T02:03:45;13.35;;;8.32;;
29908;SDS011;36247;51.952;6.146;2023-04-28T02:06:10;12.88;;;8.30;;
29908;SDS011;36247;51.952;6.146;2023-04-28T02:08:36;11.90;;;9.05;;
29908;SDS011;36247;51.952;6.146;2023-04-28T02:11:04;11.88;;;7.85;;
29908;SDS011;36247;51.952;6.146;2023-04-28T02:13:30;13.10;;;8.35;;
29908;SDS011;36247;51.952;6.146;2023-04-28T02:15:58;14.45;;;8.30;;
29908;SDS011;36247;51.952;6.146;2023-04-28T02:18:25;11.50;;;8.02;;
29908;SDS011;36247;51.952;6.146;2023-04-28T02:20:51;11.75;;;8.55;;
29908;SDS011;36247;51.952;6.146;2023-04-28T02:23:17;16.98;;;8.90;;
29908;SDS011;36247;51.952;6.146;2023-04-28T02:25:42;10.85;;;8.18;;
29908;SDS011;36247;51.952;6.146;2023-04-28T02:28:11;13.13;;;8.68;;
29908;SDS011;36247;51.952;6.146;2023-04-28T02:30:38;11.82;;;7.97;;
29908;SDS011;36247;51.952;6.146;2023-04-28T02:33:04;11.32;;;7.40;;
29908;SDS011;36247;51.952;6.146;2023-04-28T02:35:30;15.10;;;8.63;;
29908;SDS011;36247;51.952;6.146;2023-04-28T02:37:56;9.10;;;7.80;;
29908;SDS011;36247;51.952;6.146;2023-04-28T02:40:22;11.85;;;7.82;;
29908;SDS011;36247;51.952;6.146;2023-04-28T02:42:47;12.18;;;8.13;;
29908;SDS011;36247;51.952;6.146;2023-04-28T02:45:13;13.13;;;9.07;;
29908;SDS011;36247;51.952;6.146;2023-04-28T02:47:39;11.30;;;8.13;;
29908;SDS011;36247;51.952;6.146;2023-04-28T02:50:05;13.73;;;7.95;;
29908;SDS011;36247;51.952;6.146;2023-04-28T02:52:32;11.88;;;8.70;;
29908;SDS011;36247;51.952;6.146;2023-04-28T02:54:57;14.82;;;8.27;;
29908;SDS011;36247;51.952;6.146;2023-04-28T02:57:24;11.40;;;8.32;;
29908;SDS011;36247;51.952;6.146;2023-04-28T02:59:49;11.23;;;8.50;;
29908;SDS011;36247;51.952;6.146;2023-04-28T03:02:15;10.98;;;8.55;;
29908;SDS011;36247;51.952;6.146;2023-04-28T03:04:42;10.85;;;8.45;;
29908;SDS011;36247;51.952;6.146;2023-04-28T03:07:08;10.23;;;7.88;;
29908;SDS011;36247;51.952;6.146;2023-04-28T03:09:36;14.48;;;8.85;;
29908;SDS011;36247;51.952;6.146;2023-04-28T03:12:02;10.15;;;7.22;;
29908;SDS011;36247;51.952;6.146;2023-04-28T03:14:30;12.38;;;9.00;;
29908;SDS011;36247;51.952;6.146;2023-04-28T03:16:56;14.63;;;9.15;;
29908;SDS011;36247;51.952;6.146;2023-04-28T03:19:22;13.45;;;8.35;;
29908;SDS011;36247;51.952;6.146;2023-04-28T03:21:47;14.48;;;9.63;;
29908;SDS011;36247;51.952;6.146;2023-04-28T03:24:13;14.13;;;8.93;;
29908;SDS011;36247;51.952;6.146;2023-04-28T03:26:38;13.80;;;8.73;;
29908;SDS011;36247;51.952;6.146;2023-04-28T03:29:05;10.77;;;8.32;;
29908;SDS011;36247;51.952;6.146;2023-04-28T03:31:32;16.10;;;8.80;;
29908;SDS011;36247;51.952;6.146;2023-04-28T03:33:57;12.18;;;8.05;;
29908;SDS011;36247;51.952;6.146;2023-04-28T03:36:23;15.55;;;9.38;;
29908;SDS011;36247;51.952;6.146;2023-04-28T03:38:49;14.10;;;8.77;;
29908;SDS011;36247;51.952;6.146;2023-04-28T03:41:15;11.90;;;8.43;;
29908;SDS011;36247;51.952;6.146;2023-04-28T03:43:59;13.95;;;8.38;;
29908;SDS011;36247;51.952;6.146;2023-04-28T03:46:30;13.82;;;8.38;;
29908;SDS011;36247;51.952;6.146;2023-04-28T03:48:57;12.15;;;7.43;;
29908;SDS011;36247;51.952;6.146;2023-04-28T03:51:23;19.38;;;8.43;;
29908;SDS011;36247;51.952;6.146;2023-04-28T03:53:49;13.80;;;8.13;;
29908;SDS011;36247;51.952;6.146;2023-04-28T03:56:14;16.88;;;8.68;;
29908;SDS011;36247;51.952;6.146;2023-04-28T03:58:40;8.98;;;7.45;;
29908;SDS011;36247;51.952;6.146;2023-04-28T04:01:06;16.08;;;8.73;;
29908;SDS011;36247;51.952;6.146;2023-04-28T04:03:32;13.95;;;8.60;;
29908;SDS011;36247;51.952;6.146;2023-04-28T04:05:57;13.35;;;9.30;;
29908;SDS011;36247;51.952;6.146;2023-04-28T04:08:23;13.77;;;9.05;;
29908;SDS011;36247;51.952;6.146;2023-04-28T04:10:48;11.65;;;8.45;;
29908;SDS011;36247;51.952;6.146;2023-04-28T04:13:14;10.52;;;7.97;;
29908;SDS011;36247;51.952;6.146;2023-04-28T04:15:41;15.48;;;9.18;;
29908;SDS011;36247;51.952;6.146;2023-04-28T04:18:08;11.57;;;8.75;;
29908;SDS011;36247;51.952;6.146;2023-04-28T04:20:53;12.90;;;8.77;;
29908;SDS011;36247;51.952;6.146;2023-04-28T04:23:20;15.25;;;9.23;;
29908;SDS011;36247;51.952;6.146;2023-04-28T04:25:46;16.08;;;8.82;;
29908;SDS011;36247;51.952;6.146;2023-04-28T04:28:12;13.30;;;9.05;;
29908;SDS011;36247;51.952;6.146;2023-04-28T04:30:38;13.13;;;9.50;;
29908;SDS011;36247;51.952;6.146;2023-04-28T04:33:03;16.83;;;10.02;;
29908;SDS011;36247;51.952;6.146;2023-04-28T04:35:30;13.68;;;10.05;;
29908;SDS011;36247;51.952;6.146;2023-04-28T04:37:55;11.80;;;9.07;;
29908;SDS011;36247;51.952;6.146;2023-04-28T04:40:22;15.32;;;10.00;;
29908;SDS011;36247;51.952;6.146;2023-04-28T04:42:48;18.10;;;10.15;;
29908;SDS011;36247;51.952;6.146;2023-04-28T04:45:16;16.35;;;9.65;;
29908;SDS011;36247;51.952;6.146;2023-04-28T04:47:42;15.93;;;10.43;;
29908;SDS011;36247;51.952;6.146;2023-04-28T04:50:10;22.33;;;10.43;;
29908;SDS011;36247;51.952;6.146;2023-04-28T04:52:38;17.80;;;10.55;;
29908;SDS011;36247;51.952;6.146;2023-04-28T04:55:05;14.95;;;10.60;;
29908;SDS011;36247;51.952;6.146;2023-04-28T04:57:36;17.13;;;10.85;;
29908;SDS011;36247;51.952;6.146;2023-04-28T05:00:26;17.80;;;10.73;;
29908;SDS011;36247;51.952;6.146;2023-04-28T05:02:56;17.02;;;10.43;;
29908;SDS011;36247;51.952;6.146;2023-04-28T05:05:22;15.80;;;10.50;;
29908;SDS011;36247;51.952;6.146;2023-04-28T05:08:04;17.55;;;11.48;;
29908;SDS011;36247;51.952;6.146;2023-04-28T05:10:30;17.02;;;10.80;;
29908;SDS011;36247;51.952;6.146;2023-04-28T05:12:56;16.40;;;11.55;;
29908;SDS011;36247;51.952;6.146;2023-04-28T05:15:22;16.02;;;11.13;;
29908;SDS011;36247;51.952;6.146;2023-04-28T05:18:07;19.27;;;11.70;;
29908;SDS011;36247;51.952;6.146;2023-04-28T05:20:36;17.83;;;12.43;;
29908;SDS011;36247;51.952;6.146;2023-04-28T05:23:02;19.05;;;12.25;;
29908;SDS011;36247;51.952;6.146;2023-04-28T05:25:28;19.40;;;12.82;;
29908;SDS011;36247;51.952;6.146;2023-04-28T05:27:54;19.98;;;12.50;;
29908;SDS011;36247;51.952;6.146;2023-04-28T05:30:20;19.83;;;12.48;;
29908;SDS011;36247;51.952;6.146;2023-04-28T05:32:46;23.10;;;13.57;;
29908;SDS011;36247;51.952;6.146;2023-04-28T05:35:12;19.25;;;13.40;;
29908;SDS011;36247;51.952;6.146;2023-04-28T05:37:39;20.60;;;13.82;;
29908;SDS011;36247;51.952;6.146;2023-04-28T05:40:08;24.75;;;15.25;;
29908;SDS011;36247;51.952;6.146;2023-04-28T05:42:34;26.63;;;15.48;;
29908;SDS011;36247;51.952;6.146;2023-04-28T05:45:00;27.33;;;15.85;;
29908;SDS011;36247;51.952;6.146;2023-04-28T05:47:25;23.92;;;14.75;;
29908;SDS011;36247;51.952;6.146;2023-04-28T05:49:51;25.10;;;15.70;;
29908;SDS011;36247;51.952;6.146;2023-04-28T05:52:17;22.98;;;15.32;;
29908;SDS011;36247;51.952;6.146;2023-04-28T05:54:43;25.35;;;15.75;;
29908;SDS011;36247;51.952;6.146;2023-04-28T05:57:08;33.05;;;16.48;;
29908;SDS011;36247;51.952;6.146;2023-04-28T05:59:34;26.20;;;16.05;;
29908;SDS011;36247;51.952;6.146;2023-04-28T06:01:59;24.48;;;15.95;;
29908;SDS011;36247;51.952;6.146;2023-04-28T06:04:25;26.55;;;16.50;;
29908;SDS011;36247;51.952;6.146;2023-04-28T06:06:50;22.40;;;16.13;;
29908;SDS011;36247;51.952;6.146;2023-04-28T06:09:17;26.15;;;16.27;;
29908;SDS011;36247;51.952;6.146;2023-04-28T06:11:42;24.27;;;16.58;;
29908;SDS011;36247;51.952;6.146;2023-04-28T06:14:08;25.98;;;15.77;;
29908;SDS011;36247;51.952;6.146;2023-04-28T06:16:33;26.80;;;16.73;;
29908;SDS011;36247;51.952;6.146;2023-04-28T06:19:00;27.88;;;17.25;;
29908;SDS011;36247;51.952;6.146;2023-04-28T06:21:26;31.67;;;19.05;;
29908;SDS011;36247;51.952;6.146;2023-04-28T06:23:52;27.48;;;19.45;;
29908;SDS011;36247;51.952;6.146;2023-04-28T06:26:19;30.00;;;21.10;;
29908;SDS011;36247;51.952;6.146;2023-04-28T06:28:45;29.67;;;19.42;;
29908;SDS011;36247;51.952;6.146;2023-04-28T06:31:11;29.38;;;20.10;;
29908;SDS011;36247;51.952;6.146;2023-04-28T06:33:38;31.52;;;18.95;;
29908;SDS011;36247;51.952;6.146;2023-04-28T06:36:04;29.33;;;19.33;;
29908;SDS011;36247;51.952;6.146;2023-04-28T06:38:31;31.75;;;21.23;;
29908;SDS011;36247;51.952;6.146;2023-04-28T06:40:57;33.97;;;19.58;;
29908;SDS011;36247;51.952;6.146;2023-04-28T06:43:23;29.23;;;20.98;;
29908;SDS011;36247;51.952;6.146;2023-04-28T06:45:58;32.10;;;20.83;;
29908;SDS011;36247;51.952;6.146;2023-04-28T06:48:25;29.08;;;20.55;;
29908;SDS011;36247;51.952;6.146;2023-04-28T06:50:50;29.73;;;19.83;;
29908;SDS011;36247;51.952;6.146;2023-04-28T06:53:16;31.73;;;20.95;;
29908;SDS011;36247;51.952;6.146;2023-04-28T06:55:42;35.08;;;20.30;;
29908;SDS011;36247;51.952;6.146;2023-04-28T06:58:09;28.05;;;18.88;;
29908;SDS011;36247;51.952;6.146;2023-04-28T07:00:38;28.17;;;19.80;;
29908;SDS011;36247;51.952;6.146;2023-04-28T07:03:05;29.00;;;21.30;;
29908;SDS011;36247;51.952;6.146;2023-04-28T07:05:31;30.67;;;20.95;;
29908;SDS011;36247;51.952;6.146;2023-04-28T07:07:57;28.90;;;19.88;;
29908;SDS011;36247;51.952;6.146;2023-04-28T07:10:23;31.48;;;19.75;;
29908;SDS011;36247;51.952;6.146;2023-04-28T07:12:49;30.00;;;20.70;;
29908;SDS011;36247;51.952;6.146;2023-04-28T07:15:17;29.50;;;21.63;;
29908;SDS011;36247;51.952;6.146;2023-04-28T07:17:43;34.95;;;21.50;;
29908;SDS011;36247;51.952;6.146;2023-04-28T07:20:09;29.92;;;20.25;;
29908;SDS011;36247;51.952;6.146;2023-04-28T07:22:35;29.60;;;20.13;;
29908;SDS011;36247;51.952;6.146;2023-04-28T07:25:05;28.77;;;20.42;;
29908;SDS011;36247;51.952;6.146;2023-04-28T07:27:32;27.80;;;19.60;;
29908;SDS011;36247;51.952;6.146;2023-04-28T07:29:57;29.90;;;18.48;;
29908;SDS011;36247;51.952;6.146;2023-04-28T07:32:23;27.83;;;20.20;;
29908;SDS011;36247;51.952;6.146;2023-04-28T07:34:49;26.52;;;20.80;;
29908;SDS011;36247;51.952;6.146;2023-04-28T07:37:15;27.58;;;19.50;;
29908;SDS011;36247;51.952;6.146;2023-04-28T07:39:42;33.08;;;19.83;;
29908;SDS011;36247;51.952;6.146;2023-04-28T07:42:09;29.10;;;19.50;;
29908;SDS011;36247;51.952;6.146;2023-04-28T07:44:34;28.45;;;20.30;;
29908;SDS011;36247;51.952;6.146;2023-04-28T07:47:01;27.02;;;19.05;;
29908;SDS011;36247;51.952;6.146;2023-04-28T07:49:27;30.40;;;19.55;;
29908;SDS011;36247;51.952;6.146;2023-04-28T07:51:55;28.33;;;18.17;;
29908;SDS011;36247;51.952;6.146;2023-04-28T07:54:21;26.27;;;18.50;;
29908;SDS011;36247;51.952;6.146;2023-04-28T07:56:47;30.33;;;19.35;;
29908;SDS011;36247;51.952;6.146;2023-04-28T07:59:13;29.10;;;18.95;;
29908;SDS011;36247;51.952;6.146;2023-04-28T08:01:39;25.45;;;18.48;;
29908;SDS011;36247;51.952;6.146;2023-04-28T08:04:05;29.95;;;18.67;;
29908;SDS011;36247;51.952;6.146;2023-04-28T08:06:35;24.83;;;18.52;;
29908;SDS011;36247;51.952;6.146;2023-04-28T08:09:05;29.17;;;19.95;;
29908;SDS011;36247;51.952;6.146;2023-04-28T08:11:37;30.40;;;19.45;;
29908;SDS011;36247;51.952;6.146;2023-04-28T08:14:05;31.88;;;18.95;;
29908;SDS011;36247;51.952;6.146;2023-04-28T08:16:30;32.80;;;21.10;;
29908;SDS011;36247;51.952;6.146;2023-04-28T08:18:57;31.60;;;19.48;;
29908;SDS011;36247;51.952;6.146;2023-04-28T08:21:23;26.55;;;20.23;;
29908;SDS011;36247;51.952;6.146;2023-04-28T08:23:49;30.27;;;20.52;;
29908;SDS011;36247;51.952;6.146;2023-04-28T08:26:15;28.48;;;19.85;;
29908;SDS011;36247;51.952;6.146;2023-04-28T08:28:40;29.35;;;19.85;;
29908;SDS011;36247;51.952;6.146;2023-04-28T08:31:07;28.23;;;19.33;;
29908;SDS011;36247;51.952;6.146;2023-04-28T08:33:34;34.00;;;19.83;;
29908;SDS011;36247;51.952;6.146;2023-04-28T08:35:59;32.88;;;20.05;;
29908;SDS011;36247;51.952;6.146;2023-04-28T08:38:25;27.02;;;19.58;;
29908;SDS011;36247;51.952;6.146;2023-04-28T08:40:51;28.10;;;18.70;;
29908;SDS011;36247;51.952;6.146;2023-04-28T08:43:17;26.75;;;18.77;;
29908;SDS011;36247;51.952;6.146;2023-04-28T08:45:45;24.40;;;18.08;;
29908;SDS011;36247;51.952;6.146;2023-04-28T08:48:20;24.55;;;18.35;;
29908;SDS011;36247;51.952;6.146;2023-04-28T08:50:48;30.75;;;20.10;;
29908;SDS011;36247;51.952;6.146;2023-04-28T08:53:21;27.50;;;18.38;;
29908;SDS011;36247;51.952;6.146;2023-04-28T08:55:55;31.08;;;19.58;;
29908;SDS011;36247;51.952;6.146;2023-04-28T08:58:22;24.27;;;17.90;;
29908;SDS011;36247;51.952;6.146;2023-04-28T09:00:51;25.80;;;18.58;;
29908;SDS011;36247;51.952;6.146;2023-04-28T09:03:17;27.90;;;18.20;;
29908;SDS011;36247;51.952;6.146;2023-04-28T09:05:43;31.85;;;21.10;;
29908;SDS011;36247;51.952;6.146;2023-04-28T09:08:09;27.75;;;18.08;;
29908;SDS011;36247;51.952;6.146;2023-04-28T09:10:36;27.60;;;19.23;;
29908;SDS011;36247;51.952;6.146;2023-04-28T09:13:11;28.70;;;18.75;;
29908;SDS011;36247;51.952;6.146;2023-04-28T09:15:50;30.33;;;19.83;;
29908;SDS011;36247;51.952;6.146;2023-04-28T09:18:23;26.88;;;19.25;;
29908;SDS011;36247;51.952;6.146;2023-04-28T09:20:49;25.55;;;19.35;;
29908;SDS011;36247;51.952;6.146;2023-04-28T09:23:19;26.02;;;18.35;;
29908;SDS011;36247;51.952;6.146;2023-04-28T09:28:21;29.95;;;19.55;;
29908;SDS011;36247;51.952;6.146;2023-04-28T09:30:47;28.50;;;17.65;;
29908;SDS011;36247;51.952;6.146;2023-04-28T09:33:13;23.50;;;18.58;;
29908;SDS011;36247;51.952;6.146;2023-04-28T09:35:40;26.25;;;18.55;;
29908;SDS011;36247;51.952;6.146;2023-04-28T09:38:11;25.67;;;18.33;;
29908;SDS011;36247;51.952;6.146;2023-04-28T09:40:50;25.63;;;17.73;;
29908;SDS011;36247;51.952;6.146;2023-04-28T09:45:50;26.85;;;18.50;;
29908;SDS011;36247;51.952;6.146;2023-04-28T09:48:16;23.42;;;18.17;;
29908;SDS011;36247;51.952;6.146;2023-04-28T09:50:51;26.48;;;18.70;;
29908;SDS011;36247;51.952;6.146;2023-04-28T09:53:18;28.35;;;20.23;;
29908;SDS011;36247;51.952;6.146;2023-04-28T09:55:47;28.90;;;21.35;;
29908;SDS011;36247;51.952;6.146;2023-04-28T09:58:15;23.42;;;17.23;;
29908;SDS011;36247;51.952;6.146;2023-04-28T10:00:43;24.13;;;17.67;;
29908;SDS011;36247;51.952;6.146;2023-04-28T10:03:10;21.52;;;16.65;;
29908;SDS011;36247;51.952;6.146;2023-04-28T10:05:39;23.58;;;18.23;;
29908;SDS011;36247;51.952;6.146;2023-04-28T10:08:06;24.27;;;16.70;;
29908;SDS011;36247;51.952;6.146;2023-04-28T10:10:32;22.80;;;17.58;;
29908;SDS011;36247;51.952;6.146;2023-04-28T10:12:59;20.60;;;16.40;;
29908;SDS011;36247;51.952;6.146;2023-04-28T10:15:25;26.60;;;17.48;;
29908;SDS011;36247;51.952;6.146;2023-04-28T10:17:51;20.42;;;16.48;;
29908;SDS011;36247;51.952;6.146;2023-04-28T10:20:18;18.92;;;16.42;;
29908;SDS011;36247;51.952;6.146;2023-04-28T10:22:56;20.42;;;15.68;;
29908;SDS011;36247;51.952;6.146;2023-04-28T10:25:32;18.90;;;16.00;;
29908;SDS011;36247;51.952;6.146;2023-04-28T10:28:03;22.58;;;18.17;;
29908;SDS011;36247;51.952;6.146;2023-04-28T10:30:31;24.17;;;18.80;;
29908;SDS011;36247;51.952;6.146;2023-04-28T10:40:40;24.27;;;18.13;;
29908;SDS011;36247;51.952;6.146;2023-04-28T10:43:08;24.23;;;17.90;;
29908;SDS011;36247;51.952;6.146;2023-04-28T10:48:17;22.33;;;18.23;;
29908;SDS011;36247;51.952;6.146;2023-04-28T10:56:13;23.83;;;20.65;;
29908;SDS011;36247;51.952;6.146;2023-04-28T10:58:47;26.67;;;20.17;;
29908;SDS011;36247;51.952;6.146;2023-04-28T11:08:57;28.52;;;20.67;;
29908;SDS011;36247;51.952;6.146;2023-04-28T11:11:30;24.90;;;21.23;;
29908;SDS011;36247;51.952;6.146;2023-04-28T11:16:49;30.23;;;23.80;;
29908;SDS011;36247;51.952;6.146;2023-04-28T11:19:19;30.10;;;23.35;;
29908;SDS011;36247;51.952;6.146;2023-04-28T11:21:47;30.05;;;24.13;;
29908;SDS011;36247;51.952;6.146;2023-04-28T11:24:13;31.60;;;22.98;;
29908;SDS011;36247;51.952;6.146;2023-04-28T11:26:40;29.25;;;23.98;;
29908;SDS011;36247;51.952;6.146;2023-04-28T11:29:09;26.20;;;21.50;;
29908;SDS011;36247;51.952;6.146;2023-04-28T11:31:37;27.65;;;23.15;;
29908;SDS011;36247;51.952;6.146;2023-04-28T11:34:11;29.48;;;21.98;;
29908;SDS011;36247;51.952;6.146;2023-04-28T11:36:40;28.42;;;21.33;;
29908;SDS011;36247;51.952;6.146;2023-04-28T11:39:08;25.20;;;20.33;;
29908;SDS011;36247;51.952;6.146;2023-04-28T11:41:37;23.50;;;20.30;;
29908;SDS011;36247;51.952;6.146;2023-04-28T11:46:46;21.58;;;18.55;;
29908;SDS011;36247;51.952;6.146;2023-04-28T11:49:19;24.90;;;20.05;;
29908;SDS011;36247;51.952;6.146;2023-04-28T11:51:45;24.42;;;19.55;;
29908;SDS011;36247;51.952;6.146;2023-04-28T11:54:24;22.58;;;17.35;;
29908;SDS011;36247;51.952;6.146;2023-04-28T11:56:52;20.60;;;17.17;;
29908;SDS011;36247;51.952;6.146;2023-04-28T11:59:23;18.90;;;16.48;;
29908;SDS011;36247;51.952;6.146;2023-04-28T12:01:54;18.33;;;15.85;;
29908;SDS011;36247;51.952;6.146;2023-04-28T12:07:12;17.90;;;15.30;;
29908;SDS011;36247;51.952;6.146;2023-04-28T12:09:47;16.40;;;14.70;;
29908;SDS011;36247;51.952;6.146;2023-04-28T12:15:00;17.98;;;14.40;;
29908;SDS011;36247;51.952;6.146;2023-04-28T12:17:39;17.08;;;14.43;;
29908;SDS011;36247;51.952;6.146;2023-04-28T12:20:07;17.10;;;15.30;;
29908;SDS011;36247;51.952;6.146;2023-04-28T12:22:45;18.67;;;15.77;;
29908;SDS011;36247;51.952;6.146;2023-04-28T12:25:12;18.15;;;16.25;;
29908;SDS011;36247;51.952;6.146;2023-04-28T12:27:40;20.90;;;18.00;;
29908;SDS011;36247;51.952;6.146;2023-04-28T12:32:47;24.02;;;18.67;;
29908;SDS011;36247;51.952;6.146;2023-04-28T12:35:13;26.55;;;19.70;;
29908;SDS011;36247;51.952;6.146;2023-04-28T12:37:41;24.08;;;19.02;;
29908;SDS011;36247;51.952;6.146;2023-04-28T12:40:07;23.83;;;19.80;;
29908;SDS011;36247;51.952;6.146;2023-04-28T12:42:34;24.77;;;20.48;;
29908;SDS011;36247;51.952;6.146;2023-04-28T12:45:01;27.42;;;22.63;;
29908;SDS011;36247;51.952;6.146;2023-04-28T12:47:27;27.20;;;21.08;;
29908;SDS011;36247;51.952;6.146;2023-04-28T12:49:53;28.40;;;20.98;;
29908;SDS011;36247;51.952;6.146;2023-04-28T12:52:19;29.00;;;22.17;;
29908;SDS011;36247;51.952;6.146;2023-04-28T12:54:45;24.88;;;19.85;;
29908;SDS011;36247;51.952;6.146;2023-04-28T12:57:11;26.02;;;19.23;;
29908;SDS011;36247;51.952;6.146;2023-04-28T12:59:40;26.73;;;20.00;;
29908;SDS011;36247;51.952;6.146;2023-04-28T13:02:06;23.67;;;19.27;;
29908;SDS011;36247;51.952;6.146;2023-04-28T13:04:34;24.20;;;18.23;;
29908;SDS011;36247;51.952;6.146;2023-04-28T13:07:00;24.13;;;18.58;;
29908;SDS011;36247;51.952;6.146;2023-04-28T13:09:26;23.52;;;17.75;;
29908;SDS011;36247;51.952;6.146;2023-04-28T13:11:52;20.75;;;16.00;;
29908;SDS011;36247;51.952;6.146;2023-04-28T13:14:18;20.48;;;16.88;;
29908;SDS011;36247;51.952;6.146;2023-04-28T13:16:44;16.98;;;14.38;;
29908;SDS011;36247;51.952;6.146;2023-04-28T13:19:11;17.55;;;14.77;;
29908;SDS011;36247;51.952;6.146;2023-04-28T13:21:40;17.58;;;12.48;;
29908;SDS011;36247;51.952;6.146;2023-04-28T13:24:07;22.00;;;14.25;;
29908;SDS011;36247;51.952;6.146;2023-04-28T13:26:34;15.70;;;13.18;;
29908;SDS011;36247;51.952;6.146;2023-04-28T13:29:02;19.33;;;14.25;;
29908;SDS011;36247;51.952;6.146;2023-04-28T13:31:29;16.45;;;13.82;;
29908;SDS011;36247;51.952;6.146;2023-04-28T13:33:55;16.30;;;13.73;;
29908;SDS011;36247;51.952;6.146;2023-04-28T13:36:22;16.33;;;12.90;;
29908;SDS011;36247;51.952;6.146;2023-04-28T13:38:48;13.50;;;10.35;;
29908;SDS011;36247;51.952;6.146;2023-04-28T13:41:15;13.60;;;10.00;;
29908;SDS011;36247;51.952;6.146;2023-04-28T13:43:43;14.35;;;11.02;;
29908;SDS011;36247;51.952;6.146;2023-04-28T13:46:10;14.23;;;9.98;;
29908;SDS011;36247;51.952;6.146;2023-04-28T13:48:37;13.27;;;10.82;;
29908;SDS011;36247;51.952;6.146;2023-04-28T13:51:05;13.02;;;10.32;;
29908;SDS011;36247;51.952;6.146;2023-04-28T13:53:34;12.27;;;10.57;;
29908;SDS011;36247;51.952;6.146;2023-04-28T13:56:04;12.63;;;10.30;;
29908;SDS011;36247;51.952;6.146;2023-04-28T13:58:32;14.80;;;10.00;;
29908;SDS011;36247;51.952;6.146;2023-04-28T14:00:58;12.07;;;9.48;;
29908;SDS011;36247;51.952;6.146;2023-04-28T14:03:24;13.27;;;10.02;;
29908;SDS011;36247;51.952;6.146;2023-04-28T14:05:51;11.02;;;9.48;;
29908;SDS011;36247;51.952;6.146;2023-04-28T14:08:19;10.77;;;9.48;;
29908;SDS011;36247;51.952;6.146;2023-04-28T14:10:45;10.80;;;9.25;;
29908;SDS011;36247;51.952;6.146;2023-04-28T14:13:15;11.45;;;9.25;;
29908;SDS011;36247;51.952;6.146;2023-04-28T14:15:42;13.05;;;10.30;;
29908;SDS011;36247;51.952;6.146;2023-04-28T14:18:09;15.88;;;10.23;;
29908;SDS011;36247;51.952;6.146;2023-04-28T14:20:37;13.40;;;10.70;;
29908;SDS011;36247;51.952;6.146;2023-04-28T14:23:05;13.10;;;10.25;;
29908;SDS011;36247;51.952;6.146;2023-04-28T14:25:34;12.30;;;9.68;;
29908;SDS011;36247;51.952;6.146;2023-04-28T14:28:02;12.63;;;9.95;;
29908;SDS011;36247;51.952;6.146;2023-04-28T14:30:28;13.27;;;10.50;;
29908;SDS011;36247;51.952;6.146;2023-04-28T14:32:53;12.77;;;10.48;;
29908;SDS011;36247;51.952;6.146;2023-04-28T14:35:19;12.27;;;9.45;;
29908;SDS011;36247;51.952;6.146;2023-04-28T14:37:45;8.95;;;7.82;;
29908;SDS011;36247;51.952;6.146;2023-04-28T14:40:11;9.35;;;7.63;;
29908;SDS011;36247;51.952;6.146;2023-04-28T14:42:40;9.93;;;7.75;;
29908;SDS011;36247;51.952;6.146;2023-04-28T14:45:11;10.25;;;7.18;;
29908;SDS011;36247;51.952;6.146;2023-04-28T14:47:38;8.77;;;7.53;;
29908;SDS011;36247;51.952;6.146;2023-04-28T14:50:06;8.43;;;6.93;;
29908;SDS011;36247;51.952;6.146;2023-04-28T14:52:36;8.48;;;7.50;;
29908;SDS011;36247;51.952;6.146;2023-04-28T14:55:03;7.68;;;6.47;;
29908;SDS011;36247;51.952;6.146;2023-04-28T14:57:31;7.65;;;6.82;;
29908;SDS011;36247;51.952;6.146;2023-04-28T14:59:59;7.80;;;6.68;;
29908;SDS011;36247;51.952;6.146;2023-04-28T15:02:27;8.27;;;6.88;;
29908;SDS011;36247;51.952;6.146;2023-04-28T15:04:56;10.02;;;6.90;;
29908;SDS011;36247;51.952;6.146;2023-04-28T15:07:22;7.82;;;6.53;;
29908;SDS011;36247;51.952;6.146;2023-04-28T15:09:49;8.25;;;7.45;;
29908;SDS011;36247;51.952;6.146;2023-04-28T15:12:15;6.68;;;5.38;;